RJFE

Fukue Airport

Airport
ICAO code
RJFE
IATA Code
FUJ
Summary
ICAO Region
APAC
ICAO Territory
Location

Goto, Nagasaki Prefecture

Serving
Fukue
Elevation
251 ft
Coordinates
32° 40' 6" N , 128° 50' 15" E
KCC
Airport WX
Tropical Revolving Storm
Metar
Observation
RJFE 301000Z 34006KT 310V010 9999 FEW035 05/M04 Q1022
Station
Fukue Airport
Date/Time
2023-01-30 10:00:00
Wind direction
340°
Wind speed
06 kts
Lowest cloud amount
few clouds
Temperature
5°C
Dew point
-4°C
Humidity
52%
QNH
1022 hPa
Weather condition
n/a

Fukue Airport, is an airport located 1.7nm southwest of Gotō, Nagasaki Prefecture, off the western coast of Kyūshū, Japan. The airport also serves the city of Fukue. It is also known as Gotō-Fukue Airport.

Climatology

Humid Sub-tropical climate (Köppen climate classification Cfa)

Runways

Designator Length Width Surface Rops
3/21 2000 46 ASP Yes/Yes

Airport map

Aerial View

SKYbrary Partners:

Safety knowledge contributed by: